Aérodrome :
LOGIN :

S'inscrire | Disclaimer

   EN    FR    IT 

 










Légende :    VFR   VFR Marginal   IFR   IFR Intensif   IFR Très Intensif
Visi : 
Plafond : 
>= 8 km
>= 3000ft
5 à 8 km
1000 à 3000 ft
1500m à 5 km
500 à 1000 ft
800 à 1500m
200 à 500 ft
< 800m
< 200 ft
Symboles :   Orages  Brouillard  Fortes neiges  Fortes précipitations  Vent > 20 kt
SIGMETs :   Divers  Orages  Givrage  Turbulence  Onde Orograph.  Cendres Volcan.






- Altitude de l'aérodrome : 230 ft


ETHB - Buckeburg Army

DERNIER METAR :
  • 151420Z 14006KT 9999 FEW055 BKN270 26/11 Q1011 BLU+BLU+

METARs EXPIRÉS :
  • 151320Z 16005KT 9999 FEW056 SCT300 25/11 Q1011 BLU+BLU+
  • 151220Z 25004KT 9999 FEW056 BKN300 24/10 Q1012 BLU+BLU+
  • 151120Z 28004KT 9999 FEW051 SCT320 24/11 Q1012 BLU+BLU+
  • 151020Z 24003KT 9999 FEW046 23/11 Q1013 BLU+BLU+

TAF TAF ETHB
Valide du 15 à 14h jusqu'au 15 à 23h UTC


151341Z 1514/1523 12006KT 9999 NSW FEW050 SCT250
TEMPO 1517/1523 09010KT 9999 NSW SCT050
PROB30 1522/1523 14012G22KT 5000 SHRA BKN025



MET'MAP, la Météo Aéronautique d'un coup d'oeil ! - Copyright ORBIFLY Décembre 2007 - Disclaimer

ORBIFLY MET'MAP TEAM :

Programmation & Développement : Alexandra Zaïnal
Sur une idée originale de : Baudouin d'Aumeries
Soutien technique & logistique : Manuel Goepfert
Assistance : Marc-Olivier Méhu




SOURCES & CREDITS :

   NOAA